createdAt,value
2023-08-15T00:00:00.854Z,87.30
2023-08-15T00:05:00.382Z,88.00
2023-08-15T00:10:00.354Z,87.87
2023-08-15T00:15:00.472Z,87.71
2023-08-15T00:20:00.405Z,88.61
2023-08-15T00:25:00.444Z,87.80
2023-08-15T00:30:00.422Z,87.04
2023-08-15T00:35:00.354Z,86.79
2023-08-15T00:40:01.365Z,88.09
2023-08-15T00:45:00.354Z,88.71
2023-08-15T00:50:01.489Z,90.90
2023-08-15T00:55:00.642Z,88.37
2023-08-15T01:00:00.937Z,88.35
2023-08-15T01:05:00.379Z,86.77
2023-08-15T01:10:00.430Z,86.42
2023-08-15T01:15:07.215Z,87.06
2023-08-15T01:20:06.410Z,85.02
2023-08-15T01:25:00.655Z,85.80
2023-08-15T01:30:00.419Z,84.87
2023-08-15T01:35:07.302Z,85.96
2023-08-15T01:40:02.714Z,86.96
2023-08-15T01:45:01.290Z,87.13
2023-08-15T01:50:00.350Z,87.93
2023-08-15T01:55:00.421Z,87.86
2023-08-15T02:00:00.654Z,88.01
2023-08-15T02:05:00.397Z,88.30
2023-08-15T02:10:00.406Z,89.42
2023-08-15T02:15:00.391Z,89.86
2023-08-15T02:20:00.417Z,89.89
2023-08-15T02:25:00.402Z,90.64
2023-08-15T02:30:00.385Z,90.08
2023-08-15T02:35:00.465Z,91.07
2023-08-15T02:40:00.509Z,89.81
2023-08-15T02:45:00.405Z,89.82
2023-08-15T02:50:00.400Z,89.95
2023-08-15T02:55:00.375Z,89.93
2023-08-15T03:00:00.785Z,90.35
2023-08-15T03:05:00.500Z,90.66
2023-08-15T03:10:00.459Z,90.84
2023-08-15T03:15:00.997Z,91.05
2023-08-15T03:20:00.371Z,91.79
2023-08-15T03:25:00.355Z,91.95
2023-08-15T03:30:00.613Z,92.15
2023-08-15T03:35:00.394Z,94.04
2023-08-15T03:40:00.360Z,95.51
2023-08-15T03:45:00.506Z,96.43
2023-08-15T03:50:00.383Z,98.41
2023-08-15T03:55:00.332Z,99.50
2023-08-15T04:00:00.782Z,100.00
2023-08-15T04:05:00.378Z,100.00
2023-08-15T04:10:00.369Z,100.00
2023-08-15T04:15:00.529Z,100.00
2023-08-15T04:20:00.430Z,100.00
2023-08-15T04:25:00.349Z,100.00
2023-08-15T04:30:00.368Z,100.00
2023-08-15T04:35:00.431Z,100.00
2023-08-15T04:40:00.485Z,100.00
2023-08-15T04:45:00.365Z,100.00
2023-08-15T04:50:00.631Z,100.00
2023-08-15T04:55:00.365Z,100.00
2023-08-15T05:00:00.824Z,100.00
2023-08-15T05:05:00.432Z,100.00
2023-08-15T05:10:00.386Z,100.00
2023-08-15T05:15:00.380Z,100.00
2023-08-15T05:20:00.401Z,100.00
2023-08-15T05:25:00.403Z,100.00
2023-08-15T05:30:00.400Z,100.00
2023-08-15T05:35:00.398Z,100.00
2023-08-15T05:40:03.279Z,100.00
2023-08-15T05:45:00.402Z,100.00
2023-08-15T05:50:00.407Z,98.45
2023-08-15T05:55:00.518Z,97.77
2023-08-15T06:00:00.689Z,96.63
2023-08-15T06:05:01.235Z,94.46
2023-08-15T06:10:00.402Z,91.51
2023-08-15T06:15:00.405Z,90.45
2023-08-15T06:20:00.375Z,88.49
2023-08-15T06:25:00.346Z,85.01
2023-08-15T06:30:00.369Z,84.93
2023-08-15T06:35:00.870Z,85.72
2023-08-15T06:40:00.597Z,83.95
2023-08-15T06:45:01.097Z,82.14
2023-08-15T06:50:00.477Z,80.77
2023-08-15T06:55:00.695Z,80.60
2023-08-15T07:00:01.664Z,76.13
2023-08-15T07:05:00.365Z,74.89
2023-08-15T07:10:00.636Z,75.82
2023-08-15T07:15:00.730Z,74.53
2023-08-15T07:20:00.416Z,77.72
2023-08-15T07:25:00.384Z,78.41
2023-08-15T07:30:00.380Z,80.44
2023-08-15T07:35:00.376Z,82.20
2023-08-15T07:40:01.886Z,83.60
2023-08-15T07:45:00.724Z,84.15
2023-08-15T07:50:18.897Z,83.05
2023-08-15T07:55:00.346Z,83.39
2023-08-15T08:00:00.912Z,84.19
2023-08-15T08:05:00.441Z,84.90
2023-08-15T08:10:00.868Z,85.62
2023-08-15T08:15:00.519Z,84.15
2023-08-15T08:20:00.770Z,84.29
2023-08-15T08:25:17.825Z,84.09
2023-08-15T08:30:00.351Z,85.20
2023-08-15T08:35:00.387Z,83.58
2023-08-15T08:40:00.368Z,76.33
2023-08-15T08:45:01.641Z,75.51
2023-08-15T08:50:00.737Z,75.87
2023-08-15T08:55:02.073Z,75.20
2023-08-15T09:00:05.083Z,74.68
2023-08-15T09:05:01.451Z,71.22
2023-08-15T09:10:00.525Z,71.12
2023-08-15T09:15:00.635Z,70.71
2023-08-15T09:20:08.858Z,71.83
2023-08-15T09:25:00.386Z,74.71
2023-08-15T09:30:09.441Z,73.50
2023-08-15T09:35:00.377Z,73.77
2023-08-15T09:40:01.227Z,74.31
2023-08-15T09:45:01.074Z,75.57
2023-08-15T09:50:00.532Z,75.28
2023-08-15T09:55:00.400Z,71.59
2023-08-15T10:00:00.771Z,65.51
2023-08-15T10:05:03.155Z,63.78
2023-08-15T10:10:02.684Z,60.80
2023-08-15T10:15:00.654Z,61.89
2023-08-15T10:20:03.872Z,64.24
2023-08-15T10:25:32.613Z,64.66
2023-08-15T10:30:00.593Z,64.64
2023-08-15T10:35:02.550Z,65.71
2023-08-15T10:40:15.838Z,67.79
2023-08-15T10:45:00.376Z,67.91
2023-08-15T10:50:00.549Z,68.14
2023-08-15T10:55:00.349Z,68.84
2023-08-15T11:00:02.109Z,65.55
2023-08-15T11:05:00.473Z,64.84
2023-08-15T11:10:00.374Z,67.08
2023-08-15T11:15:00.936Z,64.73
2023-08-15T11:20:00.452Z,64.78
2023-08-15T11:25:00.360Z,64.36
2023-08-15T11:30:00.444Z,66.40
2023-08-15T11:35:00.348Z,65.24
2023-08-15T11:40:00.362Z,64.52
2023-08-15T11:45:08.452Z,65.37
2023-08-15T11:50:09.059Z,65.71
2023-08-15T11:55:05.968Z,64.40
2023-08-15T12:00:01.936Z,65.96
2023-08-15T12:05:08.442Z,60.64
2023-08-15T12:10:00.704Z,58.58
2023-08-15T12:15:00.349Z,59.08
2023-08-15T12:20:00.900Z,58.64
2023-08-15T12:25:00.396Z,60.04
2023-08-15T12:30:12.864Z,58.29
2023-08-15T12:35:00.421Z,58.25
2023-08-15T12:40:00.441Z,58.61
2023-08-15T12:45:00.356Z,57.72
2023-08-15T12:50:00.441Z,58.12
2023-08-15T12:55:01.304Z,57.57
2023-08-15T13:00:00.844Z,59.77
2023-08-15T13:05:02.010Z,55.77
2023-08-15T13:10:00.365Z,55.25
2023-08-15T13:15:00.365Z,55.57
2023-08-15T13:20:00.400Z,56.69
2023-08-15T13:25:00.390Z,57.20
2023-08-15T13:30:00.371Z,56.60
2023-08-15T13:35:00.467Z,56.41
2023-08-15T13:40:00.375Z,57.65
2023-08-15T13:45:00.553Z,58.99
2023-08-15T13:50:00.358Z,59.05
2023-08-15T13:55:00.477Z,61.58
2023-08-15T14:00:02.457Z,55.15
2023-08-15T14:05:00.399Z,53.96
2023-08-15T14:10:00.750Z,54.59
2023-08-15T14:15:00.385Z,53.97
2023-08-15T14:20:00.567Z,52.49
2023-08-15T14:25:00.418Z,53.76
2023-08-15T14:30:00.416Z,54.60
2023-08-15T14:35:00.349Z,54.02
2023-08-15T14:40:00.613Z,52.83
2023-08-15T14:45:00.376Z,54.58
2023-08-15T14:50:01.640Z,55.99
2023-08-15T14:55:00.415Z,51.16
2023-08-15T15:00:01.622Z,52.45
2023-08-15T15:05:00.346Z,52.30
2023-08-15T15:10:00.778Z,52.69
2023-08-15T15:15:00.601Z,50.72
2023-08-15T15:20:00.466Z,50.88
2023-08-15T15:25:00.386Z,49.99
2023-08-15T15:30:00.423Z,51.55
2023-08-15T15:35:00.351Z,54.08
2023-08-15T15:40:00.405Z,54.46
2023-08-15T15:45:00.334Z,55.86
2023-08-15T15:50:00.429Z,53.99
2023-08-15T15:55:00.396Z,53.41
2023-08-15T16:00:01.680Z,53.75
2023-08-15T16:05:00.365Z,54.38
2023-08-15T16:10:00.473Z,54.77
2023-08-15T16:15:00.392Z,52.93
2023-08-15T16:20:00.609Z,52.28
2023-08-15T16:25:00.356Z,53.56
2023-08-15T16:30:14.922Z,53.80
2023-08-15T16:35:00.369Z,53.85
2023-08-15T16:40:00.384Z,54.23
2023-08-15T16:45:00.355Z,55.75
2023-08-15T16:50:00.368Z,55.39
2023-08-15T16:55:00.371Z,55.71
2023-08-15T17:00:00.658Z,53.05
2023-08-15T17:05:00.374Z,54.77
2023-08-15T17:10:00.362Z,54.65
2023-08-15T17:15:00.419Z,55.20
2023-08-15T17:20:00.560Z,58.44
2023-08-15T17:25:00.376Z,61.54
2023-08-15T17:30:00.358Z,62.52
2023-08-15T17:35:00.448Z,63.22
2023-08-15T17:40:00.396Z,64.00
2023-08-15T17:45:00.362Z,63.96
2023-08-15T17:50:00.395Z,63.83
2023-08-15T17:55:00.714Z,64.32
2023-08-15T18:00:00.551Z,64.69
2023-08-15T18:05:00.394Z,64.29
2023-08-15T18:10:00.354Z,65.58
2023-08-15T18:15:00.359Z,66.60
2023-08-15T18:20:00.424Z,67.07
2023-08-15T18:25:00.361Z,67.49
2023-08-15T18:30:00.330Z,68.76
2023-08-15T18:35:00.416Z,68.50
2023-08-15T18:40:00.370Z,69.57
2023-08-15T18:45:00.335Z,70.38
2023-08-15T18:50:00.542Z,70.31
2023-08-15T18:55:00.601Z,71.03
2023-08-15T19:00:01.838Z,72.79
2023-08-15T19:05:00.708Z,73.62
2023-08-15T19:10:00.383Z,76.22
2023-08-15T19:15:00.813Z,76.00
2023-08-15T19:20:00.394Z,76.50
2023-08-15T19:25:00.391Z,77.30
2023-08-15T19:30:00.444Z,78.79
2023-08-15T19:35:00.693Z,78.79
2023-08-15T19:40:00.386Z,77.72
2023-08-15T19:45:00.369Z,77.19
2023-08-15T19:50:00.631Z,76.75
2023-08-15T19:55:01.051Z,76.12
2023-08-15T20:00:00.819Z,76.23
2023-08-15T20:05:00.400Z,77.17
2023-08-15T20:10:11.148Z,77.73
2023-08-15T20:15:00.364Z,76.81
2023-08-15T20:20:00.611Z,78.55
2023-08-15T20:25:00.570Z,77.99
2023-08-15T20:30:00.358Z,77.12
2023-08-15T20:35:00.378Z,78.28
2023-08-15T20:40:00.360Z,77.71
2023-08-15T20:45:00.364Z,77.71
2023-08-15T20:50:00.406Z,77.24
2023-08-15T20:55:00.589Z,76.71
2023-08-15T21:00:00.802Z,77.00
2023-08-15T21:05:00.391Z,75.89
2023-08-15T21:10:02.151Z,75.76
2023-08-15T21:15:00.823Z,76.68
2023-08-15T21:20:00.741Z,76.07
2023-08-15T21:25:00.367Z,76.86
2023-08-15T21:30:00.431Z,77.24
2023-08-15T21:35:00.478Z,77.85
2023-08-15T21:40:00.403Z,78.03
2023-08-15T21:45:00.370Z,78.32
2023-08-15T21:50:00.380Z,79.90
2023-08-15T21:55:00.330Z,79.58
2023-08-15T22:00:00.915Z,80.38
2023-08-15T22:05:00.335Z,80.34
2023-08-15T22:10:00.388Z,80.99
2023-08-15T22:15:00.438Z,80.90
2023-08-15T22:20:00.539Z,82.66
2023-08-15T22:25:06.463Z,81.49
2023-08-15T22:30:00.437Z,81.54
2023-08-15T22:35:00.369Z,81.82
2023-08-15T22:40:00.395Z,83.49
2023-08-15T22:45:00.381Z,81.89
2023-08-15T22:50:00.403Z,82.50
2023-08-15T22:55:00.358Z,83.46
2023-08-15T23:00:01.774Z,84.05
2023-08-15T23:05:00.406Z,87.02
2023-08-15T23:10:00.512Z,86.92
2023-08-15T23:15:00.387Z,88.15
2023-08-15T23:20:00.474Z,87.06
2023-08-15T23:25:00.343Z,88.87
2023-08-15T23:30:00.376Z,88.19
2023-08-15T23:35:00.402Z,87.64
2023-08-15T23:40:00.331Z,88.26
2023-08-15T23:45:00.342Z,91.23
2023-08-15T23:50:02.389Z,90.56
2023-08-15T23:55:00.376Z,91.99
